KSDL Airport (Scottsdale) Information

FAA: SDL - ICAO: KSDL

KSDL Airport Location

State Arizona
County Maricopa
City Scottsdale
KSDL Airport is 9 miles north of Scottsdale, AZ.
Latitude 33-37-22.4000N
Longitude 111-54-37.9000W
Elevation 1,510ft

KSDL Airport METARs

METAR KSDL 032053Z 00000KT 10SM CLR 24/02 A3000 RMK AO2 SLP143 T02440017 58027
Altimeter 30.00"
Temperature 24.4°C (75.9°F)
Wind 0° at 0KT
Clouds Skies are clear.
Visibility 10.0mi
Time observed: 2021-12-03T20:53:00Z

KSDL Airport Details

Status Operational
Activation March 1943
Ownership Public
Usage Public
Chart PHOENIX
ATC on-site Yes
Beacon schedule sunset-sunrise
Beacon color clear green

KSDL Airport Contacts

Owner CITY OF SCOTTSDALE
Owner address 3939 CIVIC CENTER PLAZA, SCOTTSDALE, AZ 85251
Owner phone 480-312-2321
Manager JIM PETTY
Manager address PO BOX 727, FLORENCE, AZ 85132
Manager phone 520-866-6545

KSDL Airport (Scottsdale) Radio Frequencies

KSDL (Airport) Radio Frequencies

UNICOM N/A
Common traffic advisory frequency (CTAF) 119.9